Otros METAR

 

LEAS - Asturias/Aviles, Spain
Distance from station: NNE 0km
Actualización: 22/06/2024 21:30
Muy nuboso
Muy nuboso
 Viento del NO
Viento: NO 13 km/h
Temperatura: 17°C
Rocío: 16°C
Humedad: 94%
Barómetro: 1024 hPa
Clouds: Muy nuboso
Visibility: 10 km
Cloud details: Parcialmente nuboso 305 m
Muy nuboso 2377 m
2024/06/22 19:30 LEAS 221930Z 31007KT 250V350 9999 SCT010 BKN078 17/16 Q1024 TEMPO BKN010
LELN - Leon/Virgen Cami, Spain
Distance from station: SSE 113km
Actualización: 22/06/2024 21:30
Despejado
Despejado
 Viento del NNO
Viento: NNO 9 km/h
Temperatura: 19°C
Rocío: 11°C
Humedad: 60%
Barómetro: 1023 hPa
Resumen: Despejado
Visibility: greater than 10 km
2024/06/22 19:30 LELN 221930Z AUTO 33005KT 280V030 CAVOK 19/11 Q1023
 
LEXJ - Santander/Paraya, Spain
Distance from station: E 180km
Actualización: 22/06/2024 21:30
Cubierto
Cubierto
 Viento del O
Viento: O 9 km/h
Temperatura: 18°C
Rocío: 15°C
Humedad: 83%
Barómetro: 1023 hPa
Clouds: Cubierto
Visibility: 10 km
Cloud details: Algunas nubes 488 m
Cubierto 914 m
2024/06/22 19:30 LEXJ 221930Z 27005KT 240V300 9999 FEW016 OVC030 18/15 Q1023
LECO - La Coruna/Alvedr, Spain
Distance from station: O 191km
Actualización: 22/06/2024 21:30
Cubierto
Cubierto
 Viento del varies
Viento: varies 4 km/h
Temperatura: 18°C
Rocío: 16°C
Humedad: 88%
Barómetro: 1024 hPa
Clouds: Cubierto
Visibility: 10 km
Cloud details: Muy nuboso 305 m
Cubierto 488 m
2024/06/22 19:30 LECO 221930Z VRB02KT 9999 BKN010 OVC016 18/16 Q1024 NOSIG
 
LEST - Santiago/Labacol, Spain
Distance from station: OSO 207km
Actualización: 22/06/2024 21:30
Muy nuboso
Muy nuboso
 Viento del N
Viento: N 13 km/h
Temperatura: 19°C
Rocío: 16°C
Humedad: 83%
Barómetro: 1025 hPa
Clouds: Muy nuboso
Visibility: 10 km
Cloud details: Algunas nubes 427 m
Muy nuboso 1280 m
2024/06/22 19:30 LEST 221930Z 35007KT 320V020 9999 FEW014 BKN042 19/16 Q1025 NOSIG
LEVD - Valladolid(Mil/C, Spain
Distance from station: SSE 227km
Actualización: 22/06/2024 21:30
Algunas nubes
Algunas nubes
 Viento del varies
Viento: varies 4 km/h
Temperatura: 20°C
Rocío: 11°C
Humedad: 56%
Barómetro: 1023 hPa
Clouds: Algunas nubes
Visibility: 10 km
Cloud details: Algunas nubes 1067 m
2024/06/22 19:30 LEVD 221930Z VRB02KT 9999 FEW035 20/11 Q1023 NOSIG
 
LEBG - Burgos/Villafria, Spain
Distance from station: ESE 238km
Actualización: 22/06/2024 21:30
Cubierto
Cubierto
 Viento del ENE
Viento: ENE 11 km/h
Temperatura: 15°C
Rocío: 9°C
Humedad: 68%
Barómetro: 1024 hPa
Clouds: Cubierto
Visibility: 10 km
Cloud details: Cubierto 1524 m
2024/06/22 19:30 LEBG 221930Z AUTO 06006KT 9999 OVC050 15/09 Q1024
LEBB - Bilbao/Sondica, Spain
Distance from station: E 254km
Actualización: 22/06/2024 21:30
Muy nuboso
Muy nuboso
 Viento del NNO
Viento: NNO 4 km/h
Temperatura: 19°C
Rocío: 15°C
Humedad: 78%
Barómetro: 1023 hPa
Clouds: Muy nuboso
Visibility: 10 km
Cloud details: Algunas nubes 549 m
Muy nuboso 1402 m
2024/06/22 19:30 LEBB 221930Z 33002KT 9999 FEW018 BKN046 19/15 Q1023 NOSIG
 
LEVX - Vigo/Peinador, Spain
Distance from station: SO 257km
Actualización: 22/06/2024 21:46
Bancos de niebla, Muy nuboso
Bancos de niebla, Muy nuboso
 Viento del O
Viento: O 15 km/h
Temperatura: 17°C
Rocío: 15°C
Humedad: 88%
Barómetro: 1024 hPa
Resumen: Patches of Fog
Clouds: Muy nuboso
Visibility: 10 km
Cloud details: Muy nuboso 61 m
Muy nuboso 732 m
2024/06/22 19:46 LEVX 221946Z 27008KT 9999 0800SW BCFG BKN002 BKN024 17/15 Q1024 TEMPO 0800 FG
LEVT - Vitoria, Spain
Distance from station: ESE 280km
Actualización: 22/06/2024 21:30
Muy nuboso
Muy nuboso
 Viento del NNE
Viento: NNE 6 km/h
Temperatura: 15°C
Rocío: 13°C
Humedad: 88%
Barómetro: 1024 hPa
Clouds: Muy nuboso
Visibility: 10 km
Cloud details: Parcialmente nuboso 610 m
Muy nuboso 1829 m
2024/06/22 19:30 LEVT 221930Z 02003KT 9999 SCT020 BKN060 15/13 Q1024
 
LESA - Salamanca (civ/M, Spain
Distance from station: S 294km
Actualización: 22/06/2024 21:30
Despejado
Despejado
 Viento del NE
Viento: NE 6 km/h
Temperatura: 23°C
Rocío: 10°C
Humedad: 44%
Barómetro: 1022 hPa
Resumen: Despejado
Visibility: greater than 10 km
2024/06/22 19:30 LESA 221930Z AUTO 04003KT CAVOK 23/10 Q1022
LELO - Logrono/Agoncill, Spain
Distance from station: ESE 327km
Actualización: 22/06/2024 21:30
Cubierto
Cubierto
 Viento del varies
Viento: varies 9 km/h
Temperatura: 18°C
Rocío: 11°C
Humedad: 64%
Barómetro: 1023 hPa
Clouds: Cubierto
Visibility: 10 km
Cloud details: Cubierto 2073 m
2024/06/22 19:30 LELO 221930Z AUTO VRB05KT 9999 OVC068 18/11 Q1023
 
LPPR - Porto/Pedras Rub, Portugal
Distance from station: SO 338km
Actualización: 22/06/2024 21:30
Parcialmente nuboso
Parcialmente nuboso
 Viento del N
Viento: N 17 km/h
Temperatura: 17°C
Rocío: 16°C
Humedad: 94%
Barómetro: 1022 hPa
Clouds: Parcialmente nuboso
Visibility: 10 km
Cloud details: Parcialmente nuboso 183 m
2024/06/22 19:30 LPPR 221930Z 35009KT 310V020 9999 SCT006 17/16 Q1022
LESO - San Sebastian/Fu, Spain
Distance from station: E 343km
Actualización: 22/06/2024 21:30
Muy nuboso
Muy nuboso
 Viento del OSO
Viento: OSO 7 km/h
Temperatura: 18°C
Rocío: 15°C
Humedad: 83%
Barómetro: 1023 hPa
Clouds: Muy nuboso
Visibility: 10 km
Cloud details: Algunas nubes 457 m
Muy nuboso 610 m
2024/06/22 19:30 LESO 221930Z 24004KT 210V340 9999 FEW015 BKN020 18/15 Q1023
 
LFBZ - Biarritz/Anglet, France
Distance from station: E 363km
Actualización: 22/06/2024 21:30
Muy nuboso
Muy nuboso
 Viento del NO
Viento: NO 17 km/h
Temperatura: 17°C
Rocío: 15°C
Humedad: 88%
Barómetro: 1023 hPa
Clouds: Muy nuboso
Visibility: 10 km
Cloud details: Parcialmente nuboso 457 m
Muy nuboso 701 m
Muy nuboso 1646 m
2024/06/22 19:30 LFBZ 221930Z AUTO 31009KT 9999 SCT015/// BKN023/// BKN054/// 17/15 Q1023 TEMPO 4000 -RA BKN010
LPOV - Ovar Mil, Portugal
Distance from station: SO 365km
Actualización: 22/06/2024 21:00
Muy nuboso
Muy nuboso
 Viento del N
Viento: N 24 km/h
Temperatura: 17°C
Rocío: 15°C
Humedad: 88%
Barómetro: 1022 hPa
Clouds: Muy nuboso
Visibility: 10 km
Cloud details: Muy nuboso 213 m
2024/06/22 19:00 LPOV 221900Z 35013KT 310V020 9999 BKN007 17/15 Q1022
 
LEPP - Pamplona/Noain, Spain
Distance from station: ESE 366km
Actualización: 22/06/2024 21:30
Muy nuboso
Muy nuboso
 Viento del N
Viento: N 17 km/h
Temperatura: 16°C
Rocío: 11°C
Humedad: 72%
Barómetro: 1023 hPa
Clouds: Muy nuboso
Visibility: 10 km
Cloud details: Parcialmente nuboso 792 m
Parcialmente nuboso 1128 m
Muy nuboso 1524 m
2024/06/22 19:30 LEPP 221930Z 35009KT 9999 SCT026 SCT037 BKN050 16/11 Q1023
LECV - Madri-Colmenar, Spain
Distance from station: SSE 372km
Actualización: 21/06/2024 20:00
NOT Current
Algunas nubes
Algunas nubes
 Viento del OSO
Viento: OSO 7 km/h
Temperatura: 25°C
Rocío: 5°C
Humedad: 28%
Barómetro: 1022 hPa
Clouds: Algunas nubes
Visibility: 10 km
Cloud details: Algunas nubes 1829 m
2024/06/21 18:00 LECV 211800Z 25004KT 9999 FEW060 25/05 Q1022
 
LFBY - Dax/Seyresse, France
Distance from station: E 400km
Actualización: 22/06/2024 21:30

 Viento del OSO
Viento: OSO 7 km/h
Temperatura: 16°C
Rocío: 15°C
Humedad: 94%
Barómetro: 1022 hPa
Visibility: 10 km
2024/06/22 19:30 LFBY 221930Z AUTO 25004KT 9999 // ////// 16/15 Q1022
LEVS - Madrid/Cuatro Vi, Spain
Distance from station: SSE 401km
Actualización: 22/06/2024 21:30
Despejado
Despejado
 Viento del NO
Viento: NO 11 km/h
Temperatura: 25°C
Rocío: 7°C
Humedad: 32%
Barómetro: 1020 hPa
Resumen: Despejado
Visibility: greater than 10 km
2024/06/22 19:30 LEVS 221930Z 32006KT 260V010 CAVOK 25/07 Q1020